Time;durP1;ratioP1;P1;durP2;ratioP2;P2;SDS_P1;SDS_P2;PMS_P1;PMS_P2;Temp;Humidity;BMP_temperature;BMP_pressure;BME280_temperature;BME280_humidity;BME280_pressure;Samples;Min_cycle;Max_cycle;Signal;HPM_P1;HPM_P2
2022/10/18 00:01:12;;;;;;;11.23;8.50;;;;;;;;;;4934579;29;20047;-67
2022/10/18 00:03:38;;;;;;;13.50;8.77;;;;;;;;;;4934776;29;20110;-67
2022/10/18 00:06:06;;;;;;;14.55;8.07;;;;;;;;;;4934760;29;20035;-67
2022/10/18 00:08:32;;;;;;;12.07;8.77;;;;;;;;;;4934380;29;20074;-67
2022/10/18 00:10:58;;;;;;;12.65;8.20;;;;;;;;;;4934234;29;20031;-68
2022/10/18 00:13:25;;;;;;;13.93;8.82;;;;;;;;;;4934358;29;20040;-68
2022/10/18 00:15:57;;;;;;;11.68;8.55;;;;;;;;;;4934427;29;20111;-70
2022/10/18 00:18:23;;;;;;;11.32;8.25;;;;;;;;;;4934606;29;20110;-67
2022/10/18 00:21:00;;;;;;;10.55;8.15;;;;;;;;;;4934419;29;20055;-66
2022/10/18 00:23:27;;;;;;;13.98;8.63;;;;;;;;;;4934696;29;20050;-67
2022/10/18 00:26:20;;;;;;;16.60;8.73;;;;;;;;;;4934911;29;20043;-68
2022/10/18 00:28:51;;;;;;;12.88;8.65;;;;;;;;;;4934247;29;20063;-69
2022/10/18 00:31:25;;;;;;;13.88;9.30;;;;;;;;;;4934577;29;20036;-68
2022/10/18 00:34:04;;;;;;;11.73;8.93;;;;;;;;;;4933219;29;20046;-67
2022/10/18 00:36:33;;;;;;;14.73;9.32;;;;;;;;;;4934215;29;20047;-67
2022/10/18 00:39:00;;;;;;;13.93;9.00;;;;;;;;;;4934206;29;20036;-68
2022/10/18 00:41:30;;;;;;;14.38;9.20;;;;;;;;;;4934327;29;20035;-68
2022/10/18 00:44:25;;;;;;;11.98;8.70;;;;;;;;;;4934414;29;20142;-68
2022/10/18 00:46:55;;;;;;;12.35;8.38;;;;;;;;;;4934080;29;20032;-69
2022/10/18 00:49:48;;;;;;;11.88;8.30;;;;;;;;;;4933940;29;20501;-71
2022/10/18 00:52:39;;;;;;;11.85;8.95;;;;;;;;;;4934255;29;20035;-68
2022/10/18 00:55:06;;;;;;;13.07;9.63;;;;;;;;;;4934505;29;20032;-68
2022/10/18 00:57:32;;;;;;;16.20;10.38;;;;;;;;;;4944188;29;20050;-68
2022/10/18 00:59:59;;;;;;;16.55;9.73;;;;;;;;;;4934853;28;20040;-67
2022/10/18 01:02:25;;;;;;;15.43;9.68;;;;;;;;;;4934074;29;20048;-67
2022/10/18 01:04:50;;;;;;;14.55;9.50;;;;;;;;;;4934279;29;20032;-68
2022/10/18 01:07:25;;;;;;;14.23;9.25;;;;;;;;;;4934567;29;20502;-68
2022/10/18 01:09:57;;;;;;;14.02;9.95;;;;;;;;;;4934364;29;20090;-67
2022/10/18 01:13:05;;;;;;;12.45;9.98;;;;;;;;;;4934171;29;20124;-68
2022/10/18 01:15:49;;;;;;;17.50;9.75;;;;;;;;;;4933910;29;20051;-67
2022/10/18 01:18:31;;;;;;;12.32;9.02;;;;;;;;;;4933396;29;20028;-68
2022/10/18 01:21:09;;;;;;;16.30;10.13;;;;;;;;;;4936232;29;20047;-68
2022/10/18 01:23:53;;;;;;;12.68;9.63;;;;;;;;;;4937172;29;20043;-68
2022/10/18 01:26:38;;;;;;;17.33;10.40;;;;;;;;;;4937735;29;20040;-67
2022/10/18 01:29:30;;;;;;;15.02;10.30;;;;;;;;;;4937578;29;20036;-70
2022/10/18 01:32:05;;;;;;;16.58;10.82;;;;;;;;;;4937477;29;20028;-69
2022/10/18 01:34:35;;;;;;;16.60;10.70;;;;;;;;;;4937434;29;20059;-69
2022/10/18 01:37:03;;;;;;;15.50;10.55;;;;;;;;;;4937078;29;20024;-68
2022/10/18 01:39:34;;;;;;;17.70;10.80;;;;;;;;;;4936652;29;20036;-68
2022/10/18 01:42:04;;;;;;;14.38;9.45;;;;;;;;;;4937201;29;20027;-70
2022/10/18 01:44:32;;;;;;;12.30;9.18;;;;;;;;;;4937064;29;20068;-69
2022/10/18 01:46:58;;;;;;;14.68;9.85;;;;;;;;;;4955911;28;20502;-69
2022/10/18 01:49:24;;;;;;;14.23;9.77;;;;;;;;;;4955925;28;20035;-69
2022/10/18 01:51:50;;;;;;;14.40;9.80;;;;;;;;;;4956403;28;20044;-69
2022/10/18 01:54:29;;;;;;;18.88;10.35;;;;;;;;;;4955878;28;20031;-68
2022/10/18 01:57:11;;;;;;;13.70;9.63;;;;;;;;;;4956251;28;20447;-68
2022/10/18 01:59:58;;;;;;;14.02;8.98;;;;;;;;;;4956035;28;20178;-68
2022/10/18 02:02:55;;;;;;;15.27;9.40;;;;;;;;;;4955822;29;20046;-68
2022/10/18 02:05:42;;;;;;;15.10;9.65;;;;;;;;;;4955896;28;20123;-68
2022/10/18 02:08:37;;;;;;;14.70;9.48;;;;;;;;;;4955829;28;20031;-68
2022/10/18 02:11:07;;;;;;;13.18;9.23;;;;;;;;;;4955802;29;20031;-67
2022/10/18 02:13:52;;;;;;;13.43;8.70;;;;;;;;;;4955439;28;20441;-68
2022/10/18 02:16:27;;;;;;;13.02;8.85;;;;;;;;;;4955335;29;20031;-67
2022/10/18 02:19:00;;;;;;;11.07;8.05;;;;;;;;;;4955429;28;20410;-67
2022/10/18 02:21:28;;;;;;;10.85;8.55;;;;;;;;;;4955706;29;20047;-70
2022/10/18 02:23:56;;;;;;;13.02;8.60;;;;;;;;;;4955755;28;20064;-68
2022/10/18 02:26:22;;;;;;;14.63;8.40;;;;;;;;;;4955272;28;20078;-69
2022/10/18 02:28:48;;;;;;;13.45;8.65;;;;;;;;;;4955347;28;20059;-69
2022/10/18 02:31:25;;;;;;;15.18;9.52;;;;;;;;;;4954625;28;20031;-69
2022/10/18 02:34:13;;;;;;;14.52;8.35;;;;;;;;;;4955705;28;20035;-68
2022/10/18 02:36:46;;;;;;;10.98;8.57;;;;;;;;;;4953464;29;20486;-69
2022/10/18 02:39:26;;;;;;;12.20;8.63;;;;;;;;;;4950731;29;20043;-68
2022/10/18 02:41:53;;;;;;;16.70;9.32;;;;;;;;;;4936248;29;20530;-68
2022/10/18 02:44:19;;;;;;;21.17;10.48;;;;;;;;;;4935854;29;20039;-69
2022/10/18 02:46:46;;;;;;;19.67;10.10;;;;;;;;;;4941254;28;20434;-69
2022/10/18 02:49:12;;;;;;;20.20;9.68;;;;;;;;;;4954947;28;20079;-67
2022/10/18 02:51:38;;;;;;;18.80;9.07;;;;;;;;;;4955209;28;20035;-68
2022/10/18 02:54:04;;;;;;;13.57;8.48;;;;;;;;;;4954961;28;20063;-70
2022/10/18 02:56:30;;;;;;;13.25;8.35;;;;;;;;;;4954820;28;20038;-68
2022/10/18 02:58:56;;;;;;;13.77;8.93;;;;;;;;;;4954805;28;20495;-69
2022/10/18 03:01:22;;;;;;;11.10;7.80;;;;;;;;;;4954916;28;20063;-68
2022/10/18 03:03:48;;;;;;;12.95;8.80;;;;;;;;;;4954641;28;20047;-70
2022/10/18 03:06:14;;;;;;;12.23;8.98;;;;;;;;;;4954418;28;20506;-71
2022/10/18 03:08:40;;;;;;;13.20;8.68;;;;;;;;;;4954145;29;20035;-68
2022/10/18 03:11:06;;;;;;;12.18;7.78;;;;;;;;;;4954570;28;20494;-69
2022/10/18 03:13:32;;;;;;;14.52;9.13;;;;;;;;;;4954936;28;20442;-69
2022/10/18 03:15:59;;;;;;;11.13;8.10;;;;;;;;;;4954616;28;20040;-71
2022/10/18 03:18:25;;;;;;;17.65;8.38;;;;;;;;;;4953619;28;20043;-69
2022/10/18 03:20:51;;;;;;;12.32;8.73;;;;;;;;;;4946320;29;20556;-68
2022/10/18 03:23:17;;;;;;;13.82;8.57;;;;;;;;;;4954098;28;20127;-68
2022/10/18 03:25:43;;;;;;;13.15;8.77;;;;;;;;;;4954282;29;20037;-67
2022/10/18 03:28:09;;;;;;;12.60;8.30;;;;;;;;;;4954363;28;20533;-68
2022/10/18 03:30:35;;;;;;;12.20;8.80;;;;;;;;;;4954113;28;20035;-69
2022/10/18 03:33:01;;;;;;;18.20;9.95;;;;;;;;;;4952256;29;20035;-70
2022/10/18 03:35:27;;;;;;;11.50;7.97;;;;;;;;;;4953754;28;20517;-69
2022/10/18 03:37:53;;;;;;;16.65;9.65;;;;;;;;;;4954226;28;20111;-71
2022/10/18 03:40:19;;;;;;;11.80;8.00;;;;;;;;;;4954182;28;20039;-70
2022/10/18 03:42:45;;;;;;;14.95;9.13;;;;;;;;;;4953650;28;20435;-69
2022/10/18 03:45:11;;;;;;;13.65;9.20;;;;;;;;;;4953837;29;20086;-69
2022/10/18 03:47:37;;;;;;;15.32;8.85;;;;;;;;;;4953820;29;20398;-69
2022/10/18 03:50:03;;;;;;;19.63;9.93;;;;;;;;;;4953730;29;20035;-71
2022/10/18 03:52:29;;;;;;;23.63;9.93;;;;;;;;;;4953581;29;20061;-71
2022/10/18 03:54:55;;;;;;;19.75;10.02;;;;;;;;;;4953768;29;20114;-69
2022/10/18 03:57:21;;;;;;;15.18;9.32;;;;;;;;;;4953429;28;20039;-67
2022/10/18 03:59:47;;;;;;;18.08;9.68;;;;;;;;;;4953189;29;20418;-68
2022/10/18 04:02:13;;;;;;;14.40;9.48;;;;;;;;;;4936681;28;20047;-69
2022/10/18 04:04:39;;;;;;;16.20;9.55;;;;;;;;;;4934002;29;20040;-69
2022/10/18 04:07:05;;;;;;;19.48;9.30;;;;;;;;;;4933841;29;20524;-69
2022/10/18 04:09:31;;;;;;;19.77;10.80;;;;;;;;;;4934021;29;20491;-67
2022/10/18 04:11:56;;;;;;;16.90;9.35;;;;;;;;;;4932908;29;20040;-70
2022/10/18 04:14:22;;;;;;;17.13;9.40;;;;;;;;;;4934170;29;20031;-70
2022/10/18 04:16:48;;;;;;;13.45;8.98;;;;;;;;;;4938442;29;20488;-69
2022/10/18 04:19:14;;;;;;;15.90;9.60;;;;;;;;;;4937303;29;20023;-69
2022/10/18 04:21:40;;;;;;;18.02;10.13;;;;;;;;;;4938656;28;20151;-69
2022/10/18 04:24:06;;;;;;;27.75;11.07;;;;;;;;;;4933720;29;20039;-70
2022/10/18 04:26:31;;;;;;;14.52;9.20;;;;;;;;;;4934041;29;20054;-71
2022/10/18 04:28:57;;;;;;;15.68;10.32;;;;;;;;;;4934023;29;20032;-70
2022/10/18 04:31:23;;;;;;;22.42;10.23;;;;;;;;;;4934425;29;20110;-68
2022/10/18 04:33:49;;;;;;;25.27;11.80;;;;;;;;;;4951876;29;20039;-69
2022/10/18 04:36:15;;;;;;;18.48;10.35;;;;;;;;;;4952904;28;20039;-70
2022/10/18 04:38:41;;;;;;;18.25;9.57;;;;;;;;;;4953504;28;20134;-71
2022/10/18 04:41:07;;;;;;;20.27;9.85;;;;;;;;;;4952496;29;20035;-71
2022/10/18 04:43:32;;;;;;;20.23;10.20;;;;;;;;;;4952947;28;20046;-71
2022/10/18 04:45:59;;;;;;;19.05;10.23;;;;;;;;;;4953738;28;20054;-69
2022/10/18 04:48:25;;;;;;;30.35;16.90;;;;;;;;;;4971954;28;20130;-70
2022/10/18 04:50:51;;;;;;;34.90;12.35;;;;;;;;;;4966742;28;20388;-68
2022/10/18 04:53:17;;;;;;;16.50;10.05;;;;;;;;;;4952025;28;20054;-69
2022/10/18 04:55:50;;;;;;;25.83;11.18;;;;;;;;;;4954848;28;20035;-71
2022/10/18 04:58:19;;;;;;;26.38;10.57;;;;;;;;;;4955285;29;20031;-70
2022/10/18 05:00:46;;;;;;;29.73;12.73;;;;;;;;;;4950641;28;20032;-70
2022/10/18 05:03:13;;;;;;;20.88;11.15;;;;;;;;;;4937460;29;20048;-70
2022/10/18 05:05:38;;;;;;;31.15;11.82;;;;;;;;;;4958942;28;20165;-68
2022/10/18 05:08:04;;;;;;;27.58;12.38;;;;;;;;;;4954614;28;20135;-69
2022/10/18 05:10:30;;;;;;;23.40;11.65;;;;;;;;;;4950676;28;20174;-68
2022/10/18 05:12:56;;;;;;;30.63;11.85;;;;;;;;;;4948992;29;20039;-69
2022/10/18 05:15:22;;;;;;;27.27;12.70;;;;;;;;;;4947384;29;20459;-68
2022/10/18 05:17:48;;;;;;;28.15;12.70;;;;;;;;;;4952500;29;20039;-68
2022/10/18 05:20:14;;;;;;;18.33;10.40;;;;;;;;;;4955311;28;20038;-68
2022/10/18 05:22:40;;;;;;;21.67;11.05;;;;;;;;;;4955215;29;20047;-68
2022/10/18 05:25:06;;;;;;;30.27;12.48;;;;;;;;;;4955218;29;20065;-68
2022/10/18 05:27:32;;;;;;;24.90;12.20;;;;;;;;;;4954706;29;20047;-67
2022/10/18 05:29:58;;;;;;;28.35;11.45;;;;;;;;;;4954380;29;20047;-67
2022/10/18 05:32:24;;;;;;;14.70;10.23;;;;;;;;;;4954896;29;20039;-68
2022/10/18 05:34:50;;;;;;;31.58;12.40;;;;;;;;;;4954957;29;20043;-69
2022/10/18 05:37:16;;;;;;;20.73;10.90;;;;;;;;;;4945727;29;20040;-69
2022/10/18 05:39:41;;;;;;;27.67;12.23;;;;;;;;;;4954914;28;20398;-76
2022/10/18 05:42:07;;;;;;;20.67;10.57;;;;;;;;;;4953808;28;20125;-71
2022/10/18 05:44:33;;;;;;;22.70;11.43;;;;;;;;;;4955945;28;20474;-74
2022/10/18 05:46:59;;;;;;;19.52;9.85;;;;;;;;;;4955279;28;20482;-73
2022/10/18 05:49:25;;;;;;;19.15;9.88;;;;;;;;;;4955462;28;20126;-70
2022/10/18 05:51:51;;;;;;;14.82;9.18;;;;;;;;;;4955125;28;20035;-72
2022/10/18 05:54:17;;;;;;;12.00;7.50;;;;;;;;;;4954770;28;20035;-72
2022/10/18 05:56:42;;;;;;;18.15;8.38;;;;;;;;;;4955249;28;20035;-69
2022/10/18 05:59:11;;;;;;;13.52;7.85;;;;;;;;;;4954624;28;20031;-71
2022/10/18 06:01:38;;;;;;;18.30;8.57;;;;;;;;;;4954966;28;20488;-70
2022/10/18 06:04:04;;;;;;;12.10;7.35;;;;;;;;;;4946567;28;20038;-68
2022/10/18 06:06:31;;;;;;;13.52;8.18;;;;;;;;;;4935528;28;20039;-68
2022/10/18 06:08:57;;;;;;;17.13;8.10;;;;;;;;;;4953996;28;20031;-68
2022/10/18 06:11:23;;;;;;;13.88;8.00;;;;;;;;;;4955868;28;20375;-69
2022/10/18 06:13:51;;;;;;;15.02;8.43;;;;;;;;;;4973838;28;20041;-73
2022/10/18 06:16:19;;;;;;;27.08;8.77;;;;;;;;;;4954978;28;20039;-69
2022/10/18 06:18:50;;;;;;;13.45;7.70;;;;;;;;;;4951446;29;20371;-72
2022/10/18 06:21:17;;;;;;;11.98;7.75;;;;;;;;;;4950640;28;20050;-71
2022/10/18 06:23:43;;;;;;;18.20;9.30;;;;;;;;;;4953719;29;20614;-72
2022/10/18 06:26:10;;;;;;;13.27;6.82;;;;;;;;;;4953417;29;20121;-73
2022/10/18 06:28:37;;;;;;;13.00;7.20;;;;;;;;;;4954048;29;20184;-72
2022/10/18 06:31:04;;;;;;;11.93;6.78;;;;;;;;;;4952435;28;20042;-71
2022/10/18 06:33:31;;;;;;;11.90;6.63;;;;;;;;;;4954109;29;20043;-75
2022/10/18 06:36:02;;;;;;;13.90;7.45;;;;;;;;;;4954821;29;20486;-69
2022/10/18 06:38:28;;;;;;;15.13;7.57;;;;;;;;;;4954728;29;20031;-69
2022/10/18 06:40:56;;;;;;;13.35;7.30;;;;;;;;;;4954992;28;20062;-70
2022/10/18 06:43:22;;;;;;;13.35;6.50;;;;;;;;;;4947871;28;20027;-70
2022/10/18 06:45:48;;;;;;;10.25;7.20;;;;;;;;;;4945986;29;20050;-70
2022/10/18 06:48:15;;;;;;;11.18;7.18;;;;;;;;;;4945812;29;20047;-72
2022/10/18 06:50:41;;;;;;;21.00;9.02;;;;;;;;;;4941451;29;20027;-76
2022/10/18 06:53:07;;;;;;;22.50;9.77;;;;;;;;;;4940845;28;20102;-73
2022/10/18 06:55:34;;;;;;;18.08;11.05;;;;;;;;;;4944019;29;20098;-70
2022/10/18 06:58:01;;;;;;;20.55;11.00;;;;;;;;;;4941893;28;20049;-72
2022/10/18 07:00:26;;;;;;;21.92;11.63;;;;;;;;;;4944781;29;20031;-69
2022/10/18 07:02:52;;;;;;;15.40;10.68;;;;;;;;;;4939675;29;20568;-70
2022/10/18 07:05:18;;;;;;;19.67;10.30;;;;;;;;;;4945272;29;20142;-73
2022/10/18 07:07:44;;;;;;;18.27;10.85;;;;;;;;;;4936159;29;20043;-73
2022/10/18 07:10:10;;;;;;;23.10;11.00;;;;;;;;;;4950855;29;20055;-73
2022/10/18 07:12:35;;;;;;;15.48;10.38;;;;;;;;;;4954153;29;20035;-71
2022/10/18 07:15:01;;;;;;;14.45;9.75;;;;;;;;;;4953318;29;20039;-71
2022/10/18 07:17:27;;;;;;;19.75;10.63;;;;;;;;;;4953802;28;20035;-73
2022/10/18 07:19:53;;;;;;;18.23;10.68;;;;;;;;;;4954111;29;20031;-72
2022/10/18 07:22:19;;;;;;;18.65;10.63;;;;;;;;;;4954423;28;20069;-74
2022/10/18 07:24:45;;;;;;;14.95;11.60;;;;;;;;;;4952364;29;20032;-72
2022/10/18 07:27:10;;;;;;;22.77;10.65;;;;;;;;;;4938611;29;20040;-72
2022/10/18 07:29:37;;;;;;;18.38;9.90;;;;;;;;;;4943683;29;20039;-72
2022/10/18 07:32:04;;;;;;;16.05;9.43;;;;;;;;;;4940915;29;20495;-71
2022/10/18 07:34:30;;;;;;;22.20;10.73;;;;;;;;;;4936551;28;20036;-74
2022/10/18 07:36:56;;;;;;;11.32;8.02;;;;;;;;;;4946208;29;20036;-71
2022/10/18 07:39:22;;;;;;;12.68;7.90;;;;;;;;;;4934812;29;20135;-71
2022/10/18 07:41:48;;;;;;;20.40;9.50;;;;;;;;;;4934700;29;20032;-74
2022/10/18 07:44:13;;;;;;;11.00;8.05;;;;;;;;;;4934876;29;20039;-73
2022/10/18 07:46:39;;;;;;;13.05;8.10;;;;;;;;;;4946277;29;20142;-75
2022/10/18 07:49:05;;;;;;;13.90;8.25;;;;;;;;;;4947451;28;20034;-74
2022/10/18 07:51:31;;;;;;;13.93;8.02;;;;;;;;;;4943252;28;20040;-72
2022/10/18 07:53:58;;;;;;;14.95;8.65;;;;;;;;;;4941614;28;20505;-78
2022/10/18 07:56:26;;;;;;;18.90;7.88;;;;;;;;;;4935259;28;20162;-71
2022/10/18 07:58:56;;;;;;;14.55;7.68;;;;;;;;;;4935486;28;20089;-71
2022/10/18 08:01:24;;;;;;;14.50;7.88;;;;;;;;;;4935738;28;20023;-74
2022/10/18 08:03:51;;;;;;;12.77;7.63;;;;;;;;;;4935793;28;20197;-71
2022/10/18 08:06:19;;;;;;;16.48;9.63;;;;;;;;;;4951500;28;20035;-75
2022/10/18 08:08:45;;;;;;;12.05;7.43;;;;;;;;;;4949477;28;20035;-73
2022/10/18 08:11:14;;;;;;;13.68;6.78;;;;;;;;;;4964895;28;20073;-71
2022/10/18 08:13:40;;;;;;;16.38;6.72;;;;;;;;;;4957223;28;20143;-75
2022/10/18 08:16:11;;;;;;;10.23;7.53;;;;;;;;;;4952222;29;20114;-76
2022/10/18 08:18:39;;;;;;;10.95;7.18;;;;;;;;;;4946211;28;20066;-73
2022/10/18 08:21:08;;;;;;;10.32;6.53;;;;;;;;;;4937906;28;20044;-75
2022/10/18 08:23:34;;;;;;;11.80;6.80;;;;;;;;;;4951640;28;20284;-77
2022/10/18 08:26:01;;;;;;;13.02;6.97;;;;;;;;;;4933085;28;20716;-77
2022/10/18 08:28:27;;;;;;;12.38;6.80;;;;;;;;;;4950850;28;20058;-72
2022/10/18 08:30:53;;;;;;;13.90;6.47;;;;;;;;;;4955281;29;20075;-76
2022/10/18 08:33:18;;;;;;;11.57;6.40;;;;;;;;;;4956039;28;20031;-76
2022/10/18 08:35:54;;;;;;;9.05;5.93;;;;;;;;;;4955280;28;20027;-77
2022/10/18 08:38:20;;;;;;;12.57;5.93;;;;;;;;;;4954629;28;20090;-75
2022/10/18 08:40:46;;;;;;;8.60;5.60;;;;;;;;;;4952989;28;20042;-78
2022/10/18 08:43:25;;;;;;;12.80;6.07;;;;;;;;;;4954437;28;20126;-76
2022/10/18 08:45:53;;;;;;;11.60;5.45;;;;;;;;;;4953573;29;20070;-76
2022/10/18 08:48:41;;;;;;;12.05;5.25;;;;;;;;;;4955571;28;20087;-74
2022/10/18 08:51:21;;;;;;;11.20;5.25;;;;;;;;;;4954782;28;20147;-76
2022/10/18 08:54:22;;;;;;;10.85;5.45;;;;;;;;;;4954230;28;20042;-77
2022/10/18 08:57:01;;;;;;;9.00;5.15;;;;;;;;;;4931518;29;20557;-76
2022/10/18 08:59:33;;;;;;;9.82;5.07;;;;;;;;;;4941425;28;20482;-75
2022/10/18 09:02:27;;;;;;;9.15;5.40;;;;;;;;;;4953614;29;20050;-78
2022/10/18 09:04:59;;;;;;;11.40;6.45;;;;;;;;;;4956501;29;20098;-75
2022/10/18 09:07:25;;;;;;;13.50;4.95;;;;;;;;;;4952154;28;20027;-77
2022/10/18 09:09:59;;;;;;;10.55;5.57;;;;;;;;;;4941967;28;20031;-74
2022/10/18 09:12:52;;;;;;;11.27;5.10;;;;;;;;;;4944180;28;20031;-73
2022/10/18 09:15:33;;;;;;;9.27;5.40;;;;;;;;;;4955477;28;20053;-70
2022/10/18 09:18:18;;;;;;;10.43;5.53;;;;;;;;;;4968665;28;20027;-74
2022/10/18 09:21:03;;;;;;;11.80;6.40;;;;;;;;;;4954981;28;20051;-75
2022/10/18 09:23:55;;;;;;;13.93;5.50;;;;;;;;;;4954222;28;20035;-75
2022/10/18 09:26:25;;;;;;;12.00;5.90;;;;;;;;;;4941872;29;20043;-74
2022/10/18 09:29:11;;;;;;;11.10;6.47;;;;;;;;;;4966633;28;20117;-75
2022/10/18 09:31:50;;;;;;;10.98;5.82;;;;;;;;;;4961026;28;20042;-75
2022/10/18 09:34:38;;;;;;;12.68;6.18;;;;;;;;;;4939414;28;20126;-73
2022/10/18 09:37:08;;;;;;;14.57;7.03;;;;;;;;;;4935335;28;20035;-71
2022/10/18 09:39:37;;;;;;;11.85;5.70;;;;;;;;;;4944803;28;20066;-75
2022/10/18 09:42:34;;;;;;;12.30;5.70;;;;;;;;;;4937551;29;20108;-69
2022/10/18 09:45:25;;;;;;;11.30;5.28;;;;;;;;;;4942969;28;20075;-76
2022/10/18 09:48:25;;;;;;;8.93;5.07;;;;;;;;;;4944461;28;20123;-71
2022/10/18 09:50:56;;;;;;;7.10;4.90;;;;;;;;;;4935251;29;20170;-75
2022/10/18 09:54:01;;;;;;;13.77;6.13;;;;;;;;;;4944269;28;20038;-72
2022/10/18 09:56:48;;;;;;;8.73;5.57;;;;;;;;;;4942002;29;20031;-73
2022/10/18 09:59:42;;;;;;;7.07;5.00;;;;;;;;;;4945061;28;20122;-70
2022/10/18 10:02:14;;;;;;;10.50;4.88;;;;;;;;;;4941866;29;20031;-71
2022/10/18 10:04:40;;;;;;;70.63;34.70;;;;;;;;;;4939756;28;20039;-70
2022/10/18 10:07:18;;;;;;;9.68;6.22;;;;;;;;;;4945795;29;20027;-73
2022/10/18 10:10:08;;;;;;;7.28;3.83;;;;;;;;;;4940608;28;20918;-72
2022/10/18 10:12:39;;;;;;;6.78;4.88;;;;;;;;;;4939866;28;20043;-74
2022/10/18 10:15:08;;;;;;;6.55;5.18;;;;;;;;;;4971837;28;20045;-72
2022/10/18 10:17:34;;;;;;;7.80;5.03;;;;;;;;;;4971903;28;20042;-74
2022/10/18 10:20:12;;;;;;;5.88;4.03;;;;;;;;;;4973100;28;20059;-74
2022/10/18 10:22:40;;;;;;;7.25;4.75;;;;;;;;;;4951944;28;20113;-76
2022/10/18 10:25:17;;;;;;;8.07;4.72;;;;;;;;;;4937358;28;20487;-72
2022/10/18 10:27:44;;;;;;;9.07;4.72;;;;;;;;;;4934840;29;20371;-71
2022/10/18 10:30:25;;;;;;;9.70;4.50;;;;;;;;;;4972922;28;20051;-72
2022/10/18 10:32:53;;;;;;;10.90;5.32;;;;;;;;;;4953512;28;20102;-74
2022/10/18 10:35:40;;;;;;;7.72;4.80;;;;;;;;;;4974230;28;20143;-72
2022/10/18 10:38:06;;;;;;;10.48;5.20;;;;;;;;;;4972318;28;20027;-71
2022/10/18 10:40:50;;;;;;;8.25;4.68;;;;;;;;;;4944599;28;20031;-71
2022/10/18 10:43:32;;;;;;;8.15;4.43;;;;;;;;;;4953517;28;20046;-70
2022/10/18 10:46:08;;;;;;;9.13;4.70;;;;;;;;;;4952359;28;20118;-70
2022/10/18 10:48:53;;;;;;;6.55;4.15;;;;;;;;;;4953795;28;20035;-74
2022/10/18 10:51:37;;;;;;;6.43;4.28;;;;;;;;;;4953366;29;20082;-70
2022/10/18 10:54:12;;;;;;;9.15;4.50;;;;;;;;;;4947895;28;20550;-70
2022/10/18 10:57:15;;;;;;;6.45;4.60;;;;;;;;;;4936923;29;20079;-71
2022/10/18 10:59:45;;;;;;;8.63;4.72;;;;;;;;;;4955445;28;20078;-71
2022/10/18 11:02:16;;;;;;;6.00;4.28;;;;;;;;;;4952357;28;20035;-72
2022/10/18 11:04:43;;;;;;;15.10;5.95;;;;;;;;;;4956829;28;20039;-71
2022/10/18 11:07:19;;;;;;;8.27;4.90;;;;;;;;;;4973371;28;20029;-70
2022/10/18 11:10:10;;;;;;;8.07;4.30;;;;;;;;;;4962978;28;20043;-71
2022/10/18 11:12:44;;;;;;;8.90;4.25;;;;;;;;;;4953544;28;20076;-75
2022/10/18 11:15:13;;;;;;;6.35;4.88;;;;;;;;;;4953845;28;20130;-76
2022/10/18 11:17:46;;;;;;;5.60;3.97;;;;;;;;;;4953716;28;20394;-76
2022/10/18 11:20:18;;;;;;;;;;;;;;;;;;4952658;29;20069;-69
2022/10/18 11:23:04;;;;;;;5.80;4.38;;;;;;;;;;4951981;28;19918;-74
2022/10/18 11:25:56;;;;;;;7.18;4.50;;;;;;;;;;4953693;28;20455;-71
2022/10/18 11:28:30;;;;;;;9.27;5.68;;;;;;;;;;4952046;28;20087;-73
2022/10/18 11:31:34;;;;;;;9.55;4.40;;;;;;;;;;4945500;28;20684;-71
2022/10/18 11:34:03;;;;;;;7.20;3.88;;;;;;;;;;4946494;28;20040;-71
2022/10/18 11:36:49;;;;;;;12.07;4.05;;;;;;;;;;4953486;29;20107;-73
2022/10/18 11:39:27;;;;;;;13.90;4.65;;;;;;;;;;4950420;28;20043;-74
2022/10/18 11:42:09;;;;;;;6.97;4.32;;;;;;;;;;4953852;28;20122;-72
2022/10/18 11:44:51;;;;;;;6.40;4.20;;;;;;;;;;4953808;28;20039;-70
2022/10/18 11:47:23;;;;;;;14.35;4.65;;;;;;;;;;4953548;29;20109;-72
2022/10/18 11:49:57;;;;;;;8.15;4.07;;;;;;;;;;4953443;28;20031;-75
2022/10/18 11:52:32;;;;;;;11.43;4.68;;;;;;;;;;4952499;29;20035;-71
2022/10/18 11:55:10;;;;;;;8.80;4.10;;;;;;;;;;4934435;29;20040;-75
2022/10/18 11:57:54;;;;;;;9.18;5.35;;;;;;;;;;4936174;28;20039;-76
2022/10/18 12:00:58;;;;;;;6.65;4.20;;;;;;;;;;4953313;29;20482;-73
2022/10/18 12:04:09;;;;;;;5.47;3.45;;;;;;;;;;4952713;28;20091;-73
2022/10/18 12:06:42;;;;;;;6.95;4.05;;;;;;;;;;4875222;29;20074;-73
2022/10/18 12:09:31;;;;;;;5.18;3.55;;;;;;;;;;4937237;28;20481;-72
2022/10/18 12:12:01;;;;;;;12.07;4.80;;;;;;;;;;4953828;28;20035;-71
2022/10/18 12:14:41;;;;;;;10.38;4.80;;;;;;;;;;4953155;28;20027;-71
2022/10/18 12:17:39;;;;;;;8.13;4.35;;;;;;;;;;4951476;29;20036;-76
2022/10/18 12:20:22;;;;;;;9.13;4.45;;;;;;;;;;4971714;28;20043;-71
2022/10/18 12:23:06;;;;;;;6.20;4.15;;;;;;;;;;4962908;28;20043;-74
2022/10/18 12:25:42;;;;;;;8.25;3.75;;;;;;;;;;4953237;28;20038;-72
2022/10/18 12:28:35;;;;;;;5.93;3.40;;;;;;;;;;4953065;28;20151;-75
2022/10/18 12:31:23;;;;;;;4.18;2.83;;;;;;;;;;4953203;29;20505;-72
2022/10/18 12:34:01;;;;;;;7.57;3.58;;;;;;;;;;4952708;28;20071;-75
2022/10/18 12:36:42;;;;;;;5.10;3.00;;;;;;;;;;4949539;28;20106;-72
2022/10/18 12:39:32;;;;;;;9.13;4.20;;;;;;;;;;4937239;28;20479;-73
2022/10/18 12:41:58;;;;;;;9.13;3.67;;;;;;;;;;4933839;29;20063;-73
2022/10/18 12:44:32;;;;;;;8.00;3.40;;;;;;;;;;4946982;28;20035;-76
2022/10/18 12:47:01;;;;;;;7.45;3.17;;;;;;;;;;4952857;28;20054;-70
2022/10/18 12:49:29;;;;;;;8.40;4.00;;;;;;;;;;4951864;28;20024;-76
2022/10/18 12:52:00;;;;;;;11.15;4.22;;;;;;;;;;4951905;28;20136;-74
2022/10/18 12:54:35;;;;;;;8.65;3.50;;;;;;;;;;4954099;28;20050;-75
2022/10/18 12:57:16;;;;;;;6.50;3.58;;;;;;;;;;4944844;29;20031;-74
2022/10/18 12:59:42;;;;;;;10.85;4.80;;;;;;;;;;4952218;29;20522;-71
2022/10/18 13:02:20;;;;;;;6.47;3.80;;;;;;;;;;4953860;28;20549;-76
2022/10/18 13:04:47;;;;;;;6.40;3.60;;;;;;;;;;4953906;28;20039;-74
2022/10/18 13:07:19;;;;;;;8.23;3.90;;;;;;;;;;4951029;29;20042;-76
2022/10/18 13:10:09;;;;;;;7.45;3.90;;;;;;;;;;4953581;29;20111;-74
2022/10/18 13:12:41;;;;;;;5.32;3.58;;;;;;;;;;4953961;28;20443;-71
2022/10/18 13:15:35;;;;;;;9.30;3.97;;;;;;;;;;4953342;28;20037;-70
2022/10/18 13:18:37;;;;;;;8.48;4.10;;;;;;;;;;4957101;29;20110;-69
2022/10/18 13:21:13;;;;;;;6.68;3.10;;;;;;;;;;4954330;29;20040;-74
2022/10/18 13:24:06;;;;;;;10.75;4.50;;;;;;;;;;4956900;29;20045;-71
2022/10/18 13:26:50;;;;;;;5.35;3.85;;;;;;;;;;4957001;29;20094;-69
2022/10/18 13:29:27;;;;;;;5.63;3.67;;;;;;;;;;4957136;28;20107;-73
2022/10/18 13:32:06;;;;;;;10.43;3.60;;;;;;;;;;4957198;29;20114;-73
2022/10/18 13:34:37;;;;;;;7.45;3.72;;;;;;;;;;4956754;29;20032;-74
2022/10/18 13:37:10;;;;;;;5.82;3.08;;;;;;;;;;4956604;29;20118;-70
2022/10/18 13:39:38;;;;;;;7.22;3.70;;;;;;;;;;4957104;28;20140;-75
2022/10/18 13:42:13;;;;;;;5.35;3.50;;;;;;;;;;4956896;28;20093;-73
2022/10/18 13:44:42;;;;;;;7.18;3.05;;;;;;;;;;4957039;28;20396;-74
2022/10/18 13:47:12;;;;;;;7.05;3.72;;;;;;;;;;4956851;29;20126;-77
2022/10/18 13:49:38;;;;;;;5.47;3.63;;;;;;;;;;4956601;28;20031;-74
2022/10/18 13:52:39;;;;;;;6.35;4.05;;;;;;;;;;4956756;29;20038;-72
2022/10/18 13:55:29;;;;;;;6.25;3.20;;;;;;;;;;4917415;29;20099;-76
2022/10/18 13:58:13;;;;;;;7.68;3.30;;;;;;;;;;4961702;28;20437;-76
2022/10/18 14:00:47;;;;;;;7.15;3.72;;;;;;;;;;4956558;28;20032;-76
2022/10/18 14:03:31;;;;;;;7.68;4.15;;;;;;;;;;4956727;28;20031;-75
2022/10/18 14:06:14;;;;;;;6.45;3.42;;;;;;;;;;4970954;28;20046;-76
2022/10/18 14:08:52;;;;;;;6.25;3.63;;;;;;;;;;4956719;28;20039;-73
2022/10/18 14:11:23;;;;;;;8.40;3.70;;;;;;;;;;4955938;28;20486;-73
2022/10/18 14:14:28;;;;;;;7.72;3.70;;;;;;;;;;4956451;28;20071;-72
2022/10/18 14:17:09;;;;;;;9.55;3.50;;;;;;;;;;4947367;28;20071;-72
2022/10/18 14:20:22;;;;;;;4.22;3.28;;;;;;;;;;4953357;29;20509;-71
2022/10/18 14:22:57;;;;;;;4.47;3.17;;;;;;;;;;4955270;29;20054;-76
2022/10/18 14:25:29;;;;;;;5.85;3.15;;;;;;;;;;4955735;29;20031;-74
2022/10/18 14:28:12;;;;;;;5.53;2.88;;;;;;;;;;4955800;28;20042;-72
2022/10/18 14:31:07;;;;;;;6.63;3.47;;;;;;;;;;4955655;28;20442;-75
2022/10/18 14:33:59;;;;;;;4.70;3.40;;;;;;;;;;4955836;28;20043;-74
2022/10/18 14:36:39;;;;;;;6.40;3.55;;;;;;;;;;4949365;29;20047;-74
2022/10/18 14:39:15;;;;;;;5.40;3.60;;;;;;;;;;4955358;29;20047;-72
2022/10/18 14:41:50;;;;;;;10.02;4.07;;;;;;;;;;4955171;29;20372;-75
2022/10/18 14:44:24;;;;;;;9.25;4.03;;;;;;;;;;4955165;29;20043;-75
2022/10/18 14:47:01;;;;;;;5.32;3.60;;;;;;;;;;4954175;28;20043;-73
2022/10/18 14:49:29;;;;;;;6.32;4.50;;;;;;;;;;4954046;29;20106;-75
2022/10/18 14:51:58;;;;;;;7.72;4.20;;;;;;;;;;4954534;28;20033;-74
2022/10/18 14:54:29;;;;;;;8.95;4.28;;;;;;;;;;4955603;28;20032;-74
2022/10/18 14:56:55;;;;;;;7.78;4.30;;;;;;;;;;4955495;29;20505;-73
2022/10/18 14:59:28;;;;;;;7.20;4.32;;;;;;;;;;4954973;28;20027;-74
2022/10/18 15:02:00;;;;;;;6.55;3.80;;;;;;;;;;4945655;28;20037;-74
2022/10/18 15:04:34;;;;;;;7.22;3.70;;;;;;;;;;4954492;28;20490;-76
2022/10/18 15:07:02;;;;;;;6.88;3.95;;;;;;;;;;4954474;28;20606;-75